createdAt,value
2019-03-19T00:02:11.059Z,18.50
2019-03-19T00:04:41.516Z,17.57
2019-03-19T00:07:11.927Z,25.70
2019-03-19T00:09:42.268Z,14.80
2019-03-19T00:12:12.781Z,18.27
2019-03-19T00:14:43.221Z,18.13
2019-03-19T00:17:13.586Z,17.33
2019-03-19T00:19:43.978Z,19.97
2019-03-19T00:22:14.372Z,17.90
2019-03-19T00:24:44.756Z,20.50
2019-03-19T00:27:16.054Z,22.53
2019-03-19T00:29:46.443Z,19.53
2019-03-19T00:32:17.844Z,23.03
2019-03-19T00:34:48.266Z,18.60
2019-03-19T00:37:18.660Z,17.20
2019-03-19T00:39:49.205Z,30.13
2019-03-19T00:42:20.555Z,20.70
2019-03-19T00:44:50.867Z,21.07
2019-03-19T00:47:21.152Z,15.70
2019-03-19T00:49:51.471Z,15.03
2019-03-19T00:52:21.975Z,19.37
2019-03-19T00:54:52.236Z,19.33
2019-03-19T00:57:22.729Z,20.07
2019-03-19T00:59:53.051Z,25.67
2019-03-19T01:02:23.345Z,15.90
2019-03-19T01:04:53.636Z,17.63
2019-03-19T01:07:23.923Z,15.13
2019-03-19T01:09:54.249Z,16.67
2019-03-19T01:12:24.571Z,16.90
2019-03-19T01:14:54.867Z,13.40
2019-03-19T01:17:25.218Z,16.37
2019-03-19T01:19:55.451Z,16.07
2019-03-19T01:22:25.726Z,11.30
2019-03-19T01:24:55.989Z,12.60
2019-03-19T01:27:26.353Z,11.80
2019-03-19T01:29:56.679Z,14.90
2019-03-19T01:32:27.029Z,22.40
2019-03-19T01:34:57.367Z,14.03
2019-03-19T01:37:27.627Z,19.23
2019-03-19T01:39:57.875Z,18.93
2019-03-19T01:42:28.141Z,17.33
2019-03-19T01:44:58.412Z,13.97
2019-03-19T01:47:28.804Z,18.17
2019-03-19T01:49:59.198Z,16.30
2019-03-19T01:52:29.493Z,17.97
2019-03-19T01:55:02.876Z,17.57
2019-03-19T01:57:33.217Z,15.00
2019-03-19T02:00:03.597Z,14.23
2019-03-19T02:02:33.967Z,12.10
2019-03-19T02:05:04.697Z,21.23
2019-03-19T02:07:38.076Z,19.80
2019-03-19T02:10:09.273Z,13.03
2019-03-19T02:12:39.792Z,19.00
2019-03-19T02:15:11.183Z,14.93
2019-03-19T02:17:41.523Z,18.70
2019-03-19T02:20:12.580Z,16.03
2019-03-19T02:22:42.881Z,15.90
2019-03-19T02:25:13.207Z,20.13
2019-03-19T02:27:43.481Z,18.10
2019-03-19T02:30:13.983Z,21.67
2019-03-19T02:32:44.345Z,18.47
2019-03-19T02:35:14.698Z,16.27
2019-03-19T02:37:45.095Z,18.73
2019-03-19T02:40:17.131Z,15.13
2019-03-19T02:42:47.533Z,20.43
2019-03-19T02:45:17.916Z,19.07
2019-03-19T02:47:49.303Z,15.37
2019-03-19T02:50:21.156Z,11.63
2019-03-19T02:52:51.460Z,19.90
2019-03-19T02:55:21.840Z,18.93
2019-03-19T02:57:52.091Z,17.73
2019-03-19T03:00:22.352Z,15.27
2019-03-19T03:02:52.630Z,10.10
2019-03-19T03:05:23.054Z,21.87
2019-03-19T03:07:53.436Z,14.80
2019-03-19T03:10:23.697Z,16.70
2019-03-19T03:12:53.991Z,13.00
2019-03-19T03:15:24.305Z,18.57
2019-03-19T03:17:54.652Z,15.87
2019-03-19T03:20:25.033Z,15.37
2019-03-19T03:22:55.307Z,11.23
2019-03-19T03:25:25.630Z,12.70
2019-03-19T03:27:55.924Z,15.60
2019-03-19T03:30:26.422Z,10.63
2019-03-19T03:32:56.649Z,16.37
2019-03-19T03:35:26.987Z,16.90
2019-03-19T03:37:57.275Z,21.00
2019-03-19T03:40:27.631Z,16.80
2019-03-19T03:42:57.942Z,13.03
2019-03-19T03:45:28.362Z,17.37
2019-03-19T03:48:00.769Z,14.23
2019-03-19T03:50:31.185Z,14.23
2019-03-19T03:53:01.449Z,15.83
2019-03-19T03:55:31.769Z,17.33
2019-03-19T03:58:02.060Z,20.80
2019-03-19T04:00:33.961Z,18.03
2019-03-19T04:03:04.306Z,15.50
2019-03-19T04:05:34.716Z,20.60
2019-03-19T04:08:05.040Z,18.00
2019-03-19T04:10:35.353Z,15.47
2019-03-19T04:13:07.638Z,15.70
2019-03-19T04:15:37.672Z,16.03
2019-03-19T04:18:08.051Z,15.63
2019-03-19T04:20:38.368Z,15.13
2019-03-19T04:23:08.668Z,23.03
2019-03-19T04:25:38.955Z,26.07
2019-03-19T04:28:09.263Z,25.23
2019-03-19T04:30:39.739Z,19.43
2019-03-19T04:33:10.016Z,19.23
2019-03-19T04:35:42.202Z,19.83
2019-03-19T04:38:12.483Z,27.00
2019-03-19T04:40:45.201Z,23.53
2019-03-19T04:43:15.488Z,20.20
2019-03-19T04:45:45.832Z,18.03
2019-03-19T04:48:16.208Z,20.23
2019-03-19T04:50:46.584Z,24.10
2019-03-19T04:53:16.940Z,20.77
2019-03-19T04:55:47.352Z,13.63
2019-03-19T04:58:19.158Z,21.00
2019-03-19T05:00:49.492Z,22.67
2019-03-19T05:03:19.790Z,20.83
2019-03-19T05:05:50.071Z,11.83
2019-03-19T05:08:20.306Z,18.43
2019-03-19T05:10:50.798Z,13.77
2019-03-19T05:13:21.118Z,17.23
2019-03-19T05:15:55.355Z,14.73
2019-03-19T05:18:25.645Z,12.37
2019-03-19T05:20:56.089Z,11.87
2019-03-19T05:23:26.331Z,17.90
2019-03-19T05:25:56.661Z,20.87
2019-03-19T05:28:26.951Z,15.83
2019-03-19T05:30:57.257Z,24.20
2019-03-19T05:33:28.583Z,24.93
2019-03-19T05:35:59.009Z,21.90
2019-03-19T05:38:29.407Z,23.17
2019-03-19T05:40:59.801Z,24.83
2019-03-19T05:43:30.229Z,18.97
2019-03-19T05:46:02.301Z,16.77
2019-03-19T05:48:32.732Z,13.13
2019-03-19T05:51:05.377Z,15.97
2019-03-19T05:53:35.696Z,11.50
2019-03-19T05:56:06.114Z,12.27
2019-03-19T05:58:36.412Z,15.97
2019-03-19T06:01:06.706Z,20.57
2019-03-19T06:03:37.052Z,14.77
2019-03-19T06:06:07.379Z,11.93
2019-03-19T06:08:42.143Z,13.03
2019-03-19T06:11:12.464Z,10.30
2019-03-19T06:13:43.616Z,17.07
2019-03-19T06:16:15.162Z,18.33
2019-03-19T06:18:47.236Z,15.47
2019-03-19T06:21:17.621Z,28.93
2019-03-19T06:23:47.875Z,16.27
2019-03-19T06:26:20.023Z,16.67
2019-03-19T06:28:50.439Z,21.83
2019-03-19T06:31:20.906Z,15.10
2019-03-19T06:33:51.571Z,22.80
2019-03-19T06:36:23.768Z,24.10
2019-03-19T06:38:54.178Z,19.13
2019-03-19T06:41:24.502Z,23.33
2019-03-19T06:44:04.467Z,23.53
2019-03-19T06:46:34.784Z,18.40
2019-03-19T06:49:05.100Z,21.37
2019-03-19T06:51:35.455Z,20.37
2019-03-19T06:54:06.049Z,25.00
2019-03-19T06:56:36.443Z,22.03
2019-03-19T06:59:08.580Z,26.23
2019-03-19T07:01:39.003Z,30.27
2019-03-19T07:04:09.354Z,26.63
2019-03-19T07:06:39.734Z,20.20
2019-03-19T07:09:10.353Z,26.13
2019-03-19T07:11:40.905Z,30.67
2019-03-19T07:14:11.237Z,18.53
2019-03-19T07:16:41.656Z,25.60
2019-03-19T07:19:13.129Z,26.87
2019-03-19T07:21:45.090Z,20.27
2019-03-19T07:24:15.460Z,17.27
2019-03-19T07:26:47.449Z,17.07
2019-03-19T07:29:17.820Z,29.33
2019-03-19T07:31:48.205Z,21.07
2019-03-19T07:34:18.637Z,22.07
2019-03-19T07:36:48.921Z,18.73
2019-03-19T07:39:19.277Z,17.47
2019-03-19T07:41:51.256Z,26.40
2019-03-19T07:44:21.583Z,13.97
2019-03-19T07:46:52.027Z,24.40
2019-03-19T07:49:22.299Z,16.90
2019-03-19T07:51:55.395Z,19.70
2019-03-19T07:54:26.489Z,21.20
2019-03-19T07:56:57.277Z,25.10
2019-03-19T07:59:28.288Z,20.70
2019-03-19T08:02:01.061Z,26.63
2019-03-19T08:04:31.977Z,20.53
2019-03-19T08:07:02.683Z,17.30
2019-03-19T08:09:33.456Z,24.70
2019-03-19T08:12:03.961Z,21.83
2019-03-19T08:14:35.897Z,21.13
2019-03-19T08:17:06.204Z,24.43
2019-03-19T08:19:39.128Z,20.60
2019-03-19T08:22:09.453Z,33.40
2019-03-19T08:24:39.835Z,20.50
2019-03-19T08:27:10.176Z,24.50
2019-03-19T08:29:40.495Z,22.80
2019-03-19T08:32:10.845Z,27.90
2019-03-19T08:34:43.363Z,21.93
2019-03-19T08:37:15.524Z,20.40
2019-03-19T08:39:45.756Z,21.50
2019-03-19T08:42:16.029Z,17.50
2019-03-19T08:44:50.671Z,20.10
2019-03-19T08:47:21.049Z,19.07
2019-03-19T08:49:51.497Z,19.33
2019-03-19T08:52:21.791Z,16.00
2019-03-19T08:54:52.085Z,24.53
2019-03-19T08:57:22.410Z,20.23
2019-03-19T08:59:54.481Z,17.07
2019-03-19T09:02:24.897Z,18.67
2019-03-19T09:04:55.351Z,17.47
2019-03-19T09:07:25.700Z,25.07
2019-03-19T09:09:55.997Z,15.63
2019-03-19T09:12:26.339Z,20.67
2019-03-19T09:14:56.779Z,20.10
2019-03-19T09:17:27.125Z,15.03
2019-03-19T09:19:57.451Z,15.23
2019-03-19T09:22:29.813Z,22.23
2019-03-19T09:24:59.676Z,18.93
2019-03-19T09:27:29.985Z,15.23
2019-03-19T09:30:00.405Z,18.23
2019-03-19T09:32:30.740Z,17.27
2019-03-19T09:35:02.033Z,20.03
2019-03-19T09:37:32.308Z,24.20
2019-03-19T09:40:02.640Z,16.77
2019-03-19T09:42:32.987Z,24.90
2019-03-19T09:45:03.658Z,19.73
2019-03-19T09:47:35.656Z,16.57
2019-03-19T09:50:06.650Z,20.40
2019-03-19T09:52:37.072Z,24.33
2019-03-19T09:55:07.861Z,19.53
2019-03-19T09:57:38.233Z,18.10
2019-03-19T10:00:11.142Z,21.90
2019-03-19T10:02:41.485Z,21.17
2019-03-19T10:05:11.876Z,20.17
2019-03-19T10:07:43.708Z,20.27
2019-03-19T10:10:15.722Z,20.43
2019-03-19T10:12:46.097Z,15.97
2019-03-19T10:15:16.755Z,19.57
2019-03-19T10:17:47.427Z,20.27
2019-03-19T10:20:18.286Z,14.67
2019-03-19T10:22:51.874Z,14.30
2019-03-19T10:25:22.352Z,14.57
2019-03-19T10:27:52.706Z,16.53
2019-03-19T10:30:23.182Z,16.97
2019-03-19T10:32:53.558Z,18.80
2019-03-19T10:35:23.993Z,15.80
2019-03-19T10:37:54.498Z,16.30
2019-03-19T10:40:24.896Z,15.10
2019-03-19T10:42:55.197Z,15.50
2019-03-19T10:45:26.724Z,13.17
2019-03-19T10:47:57.061Z,15.47
2019-03-19T10:50:27.452Z,12.77
2019-03-19T10:52:57.818Z,10.03
2019-03-19T10:55:28.188Z,15.00
2019-03-19T10:58:10.390Z,16.23
2019-03-19T11:00:31.533Z,19.23
2019-03-19T11:03:02.009Z,14.97
2019-03-19T11:05:32.493Z,13.83
2019-03-19T11:08:02.908Z,18.23
2019-03-19T11:10:33.437Z,13.03
2019-03-19T11:13:03.793Z,13.57
2019-03-19T11:15:35.811Z,17.97
2019-03-19T11:18:06.179Z,13.77
2019-03-19T11:20:38.203Z,14.47
2019-03-19T11:23:08.837Z,18.47
2019-03-19T11:25:39.500Z,14.10
2019-03-19T11:28:09.804Z,19.40
2019-03-19T11:30:40.136Z,18.70
2019-03-19T11:33:11.696Z,17.87
2019-03-19T11:35:45.765Z,17.10
2019-03-19T11:38:17.153Z,18.70
2019-03-19T11:40:47.471Z,19.37
2019-03-19T11:43:17.764Z,24.83
2019-03-19T11:45:48.111Z,20.53
2019-03-19T11:48:18.367Z,23.07
2019-03-19T11:50:48.748Z,20.23
2019-03-19T11:53:18.994Z,17.13
2019-03-19T11:55:49.260Z,21.57
2019-03-19T11:58:19.577Z,24.93
2019-03-19T12:00:53.223Z,19.10
2019-03-19T12:03:25.211Z,18.80
2019-03-19T12:05:55.511Z,17.57
2019-03-19T12:08:25.791Z,22.10
2019-03-19T12:10:56.144Z,21.00
2019-03-19T12:13:26.569Z,19.97
2019-03-19T12:15:56.976Z,23.53
2019-03-19T12:18:27.340Z,22.00
2019-03-19T12:20:57.767Z,24.77
2019-03-19T12:23:28.083Z,25.17
2019-03-19T12:25:58.444Z,26.57
2019-03-19T12:28:39.050Z,21.37
2019-03-19T12:31:00.815Z,30.83
2019-03-19T12:33:40.456Z,24.70
2019-03-19T12:36:03.222Z,22.77
2019-03-19T12:38:33.608Z,15.47
2019-03-19T12:41:03.997Z,16.93
2019-03-19T12:43:34.358Z,14.47
2019-03-19T12:46:04.685Z,19.50
2019-03-19T12:48:35.207Z,15.03
2019-03-19T12:51:05.511Z,14.17
2019-03-19T12:53:35.809Z,21.23
2019-03-19T12:56:06.238Z,18.07
2019-03-19T12:58:36.543Z,18.53
2019-03-19T13:01:07.079Z,17.87
2019-03-19T13:03:37.888Z,14.20
2019-03-19T13:06:08.362Z,19.40
2019-03-19T13:08:38.815Z,14.60
2019-03-19T13:11:09.101Z,17.03
2019-03-19T13:13:40.992Z,19.23
2019-03-19T13:16:11.473Z,24.13
2019-03-19T13:18:43.209Z,18.33
2019-03-19T13:21:13.528Z,17.23
2019-03-19T13:23:43.799Z,15.00
2019-03-19T13:26:14.099Z,19.07
2019-03-19T13:28:44.387Z,14.23
2019-03-19T13:31:14.674Z,13.73
2019-03-19T13:33:44.939Z,13.13
2019-03-19T13:36:15.307Z,15.13
2019-03-19T13:38:46.085Z,19.10
2019-03-19T13:41:16.582Z,15.63
2019-03-19T13:43:47.924Z,15.43
2019-03-19T13:46:19.307Z,30.43
2019-03-19T13:48:49.702Z,15.30
2019-03-19T13:51:20.078Z,17.20
2019-03-19T13:53:50.706Z,23.67
2019-03-19T13:56:20.989Z,15.23
2019-03-19T13:58:51.380Z,20.03
2019-03-19T14:01:21.701Z,14.90
2019-03-19T14:03:53.625Z,16.83
2019-03-19T14:06:24.060Z,15.63
2019-03-19T14:08:54.380Z,13.73
2019-03-19T14:11:25.747Z,13.70
2019-03-19T14:13:56.031Z,14.17
2019-03-19T14:16:26.391Z,11.63
2019-03-19T14:18:56.724Z,13.87
2019-03-19T14:21:26.981Z,17.47
2019-03-19T14:23:57.329Z,16.77
2019-03-19T14:26:27.738Z,16.57
2019-03-19T14:28:58.124Z,11.77
2019-03-19T14:31:28.511Z,14.13
2019-03-19T14:34:02.657Z,9.53
2019-03-19T14:36:34.182Z,12.67
2019-03-19T14:39:07.128Z,14.93
2019-03-19T14:41:37.532Z,14.77
2019-03-19T14:44:07.871Z,18.07
2019-03-19T14:46:38.240Z,10.97
2019-03-19T14:49:08.720Z,11.37
2019-03-19T14:51:39.058Z,16.03
2019-03-19T14:54:10.639Z,14.93
2019-03-19T14:56:41.237Z,15.30
2019-03-19T14:59:11.600Z,13.90
2019-03-19T15:01:41.986Z,12.03
2019-03-19T15:04:12.470Z,10.77
2019-03-19T15:06:45.904Z,17.47
2019-03-19T15:09:16.281Z,11.47
2019-03-19T15:11:47.888Z,12.00
2019-03-19T15:14:18.525Z,11.63
2019-03-19T15:16:48.970Z,8.53
2019-03-19T15:19:19.276Z,13.17
2019-03-19T15:21:49.667Z,14.67
2019-03-19T15:24:20.073Z,10.07
2019-03-19T15:26:50.569Z,9.93
2019-03-19T15:29:21.024Z,10.70
2019-03-19T15:31:51.544Z,8.63
2019-03-19T15:34:22.071Z,10.83
2019-03-19T15:36:52.477Z,8.57
2019-03-19T15:39:22.796Z,13.27
2019-03-19T15:41:53.268Z,12.27
2019-03-19T15:44:24.707Z,13.00
2019-03-19T15:46:55.182Z,10.83
2019-03-19T15:49:25.519Z,9.03
2019-03-19T15:51:55.910Z,10.97
2019-03-19T15:54:27.747Z,11.10
2019-03-19T15:56:58.580Z,13.13
2019-03-19T15:59:32.180Z,12.50
2019-03-19T16:02:02.728Z,8.73
2019-03-19T16:04:36.194Z,10.37
2019-03-19T16:07:13.242Z,9.83
2019-03-19T16:09:45.040Z,10.87
2019-03-19T16:12:15.548Z,11.30
2019-03-19T16:14:45.913Z,15.33
2019-03-19T16:17:19.771Z,8.87
2019-03-19T16:19:50.266Z,8.33
2019-03-19T16:22:20.845Z,12.90
2019-03-19T16:24:51.223Z,14.67
2019-03-19T16:27:24.144Z,11.80
2019-03-19T16:29:54.999Z,10.53
2019-03-19T16:32:25.574Z,10.10
2019-03-19T16:34:55.986Z,14.70
2019-03-19T16:37:28.924Z,17.70
2019-03-19T16:39:59.230Z,12.20
2019-03-19T16:42:29.629Z,13.87
2019-03-19T16:45:01.639Z,13.80
2019-03-19T16:47:31.940Z,18.07
2019-03-19T16:50:02.343Z,12.87
2019-03-19T16:52:32.820Z,12.40
2019-03-19T16:55:03.181Z,16.00
2019-03-19T16:57:33.710Z,15.43
2019-03-19T17:00:05.349Z,12.90
2019-03-19T17:02:36.045Z,11.13
2019-03-19T17:05:06.999Z,12.40
2019-03-19T17:07:37.619Z,13.70
2019-03-19T17:10:09.839Z,13.87
2019-03-19T17:12:42.022Z,11.47
2019-03-19T17:15:17.219Z,15.57
2019-03-19T17:17:47.774Z,14.23
2019-03-19T17:20:18.606Z,15.40
2019-03-19T17:22:49.115Z,17.77
2019-03-19T17:25:19.603Z,16.67
2019-03-19T17:27:50.066Z,11.30
2019-03-19T17:30:22.425Z,17.10
2019-03-19T17:32:53.175Z,14.13
2019-03-19T17:35:23.729Z,18.77
2019-03-19T17:37:54.126Z,23.47
2019-03-19T17:40:24.896Z,12.83
2019-03-19T17:42:55.518Z,20.90
2019-03-19T17:45:26.003Z,13.67
2019-03-19T17:47:56.559Z,15.27
2019-03-19T17:50:27.130Z,14.73
2019-03-19T17:52:57.600Z,21.27
2019-03-19T17:55:28.057Z,17.73
2019-03-19T17:57:58.848Z,16.97
2019-03-19T18:00:30.248Z,13.97
2019-03-19T18:03:00.799Z,14.70
2019-03-19T18:05:32.504Z,16.47
2019-03-19T18:08:03.015Z,20.77
2019-03-19T18:10:33.761Z,21.77
2019-03-19T18:13:06.388Z,22.47
2019-03-19T18:15:36.265Z,21.77
2019-03-19T18:18:06.646Z,19.67
2019-03-19T18:20:37.053Z,26.03
2019-03-19T18:23:07.501Z,19.97
2019-03-19T18:25:37.926Z,28.90
2019-03-19T18:28:08.448Z,22.30
2019-03-19T18:30:39.142Z,19.30
2019-03-19T18:33:09.635Z,19.03
2019-03-19T18:35:39.976Z,23.73
2019-03-19T18:38:10.488Z,16.07
2019-03-19T18:40:42.024Z,18.40
2019-03-19T18:43:12.389Z,16.67
2019-03-19T18:45:42.651Z,17.13
2019-03-19T18:48:13.048Z,29.63
2019-03-19T18:50:43.410Z,23.30
2019-03-19T18:53:13.827Z,24.87
2019-03-19T18:55:44.495Z,20.17
2019-03-19T18:58:17.138Z,26.50
2019-03-19T19:00:47.573Z,30.13
2019-03-19T19:03:17.874Z,23.30
2019-03-19T19:05:48.137Z,25.63
2019-03-19T19:08:18.747Z,24.10
2019-03-19T19:10:49.065Z,26.43
2019-03-19T19:13:19.417Z,24.23
2019-03-19T19:15:49.687Z,21.40
2019-03-19T19:18:21.068Z,28.37
2019-03-19T19:20:51.429Z,23.13
2019-03-19T19:23:23.259Z,22.10
2019-03-19T19:25:53.587Z,27.47
2019-03-19T19:28:23.900Z,21.33
2019-03-19T19:30:54.248Z,20.43
2019-03-19T19:33:24.585Z,26.43
2019-03-19T19:35:54.896Z,26.60
2019-03-19T19:38:25.291Z,31.13
2019-03-19T19:40:55.586Z,24.37
2019-03-19T19:43:25.908Z,28.23
2019-03-19T19:45:56.254Z,27.23
2019-03-19T19:48:26.656Z,25.90
2019-03-19T19:50:56.996Z,29.10
2019-03-19T19:53:30.107Z,31.47
2019-03-19T19:56:00.411Z,33.20
2019-03-19T19:58:35.409Z,27.80
2019-03-19T20:01:05.858Z,33.50
2019-03-19T20:03:36.193Z,23.63
2019-03-19T20:06:06.523Z,27.93
2019-03-19T20:08:36.859Z,27.47
2019-03-19T20:11:07.267Z,28.87
2019-03-19T20:13:39.039Z,28.00
2019-03-19T20:16:09.301Z,29.63
2019-03-19T20:18:39.668Z,35.73
2019-03-19T20:21:10.015Z,38.00
2019-03-19T20:23:40.382Z,32.87
2019-03-19T20:26:10.814Z,30.23
2019-03-19T20:28:41.177Z,34.27
2019-03-19T20:31:11.527Z,27.43
2019-03-19T20:33:41.879Z,30.87
2019-03-19T20:36:12.136Z,31.87
2019-03-19T20:38:42.714Z,34.10
2019-03-19T20:41:13.128Z,33.90
2019-03-19T20:43:43.413Z,27.57
2019-03-19T20:46:13.712Z,40.30
2019-03-19T20:48:44.502Z,40.20
2019-03-19T20:51:14.720Z,34.60
2019-03-19T20:53:45.119Z,43.50
2019-03-19T20:56:15.489Z,34.07
2019-03-19T20:58:45.753Z,36.43
2019-03-19T21:01:16.036Z,36.10
2019-03-19T21:03:46.350Z,38.60
2019-03-19T21:06:17.851Z,37.03
2019-03-19T21:08:51.063Z,32.33
2019-03-19T21:11:21.504Z,34.80
2019-03-19T21:13:52.991Z,35.47
2019-03-19T21:16:23.431Z,41.77
2019-03-19T21:18:56.658Z,32.63
2019-03-19T21:21:27.062Z,47.47
2019-03-19T21:23:57.537Z,39.50
2019-03-19T21:26:27.857Z,37.23
2019-03-19T21:29:00.200Z,38.77
2019-03-19T21:31:30.514Z,36.93
2019-03-19T21:34:02.084Z,34.77
2019-03-19T21:36:32.445Z,40.80
2019-03-19T21:39:05.625Z,40.93
2019-03-19T21:41:36.124Z,38.60
2019-03-19T21:44:06.549Z,37.13
2019-03-19T21:46:36.906Z,35.73
2019-03-19T21:49:07.297Z,33.03
2019-03-19T21:51:37.686Z,43.10
2019-03-19T21:54:08.105Z,35.30
2019-03-19T21:56:38.618Z,37.03
2019-03-19T21:59:09.120Z,37.80
2019-03-19T22:01:39.577Z,39.50
2019-03-19T22:04:11.813Z,35.03
2019-03-19T22:06:42.368Z,34.57
2019-03-19T22:09:15.172Z,30.50
2019-03-19T22:11:45.581Z,33.67
2019-03-19T22:14:15.992Z,31.17
2019-03-19T22:16:46.420Z,36.03
2019-03-19T22:19:16.780Z,38.23
2019-03-19T22:21:47.318Z,36.90
2019-03-19T22:24:17.747Z,37.60
2019-03-19T22:26:48.120Z,35.10
2019-03-19T22:29:18.538Z,33.87
2019-03-19T22:31:48.828Z,33.77
2019-03-19T22:34:19.232Z,30.13
2019-03-19T22:36:49.686Z,35.40
2019-03-19T22:39:20.020Z,33.20
2019-03-19T22:41:50.311Z,33.30
2019-03-19T22:44:20.628Z,34.37
2019-03-19T22:46:51.013Z,35.77
2019-03-19T22:49:21.292Z,30.33
2019-03-19T22:51:51.536Z,31.73
2019-03-19T22:54:22.965Z,29.37
2019-03-19T22:56:53.234Z,36.93
2019-03-19T22:59:23.724Z,30.10
2019-03-19T23:01:54.598Z,27.40
2019-03-19T23:04:27.456Z,36.90
2019-03-19T23:06:56.907Z,32.70
2019-03-19T23:09:27.678Z,40.43
2019-03-19T23:11:57.907Z,40.03
2019-03-19T23:14:28.211Z,37.57
2019-03-19T23:16:58.469Z,41.70
2019-03-19T23:19:28.807Z,45.83
2019-03-19T23:21:59.049Z,42.03
2019-03-19T23:24:30.863Z,42.90
2019-03-19T23:27:01.899Z,48.20
2019-03-19T23:29:32.290Z,41.23
2019-03-19T23:32:02.709Z,39.20
2019-03-19T23:34:38.498Z,40.73
2019-03-19T23:37:05.103Z,39.93
2019-03-19T23:39:35.431Z,43.30
2019-03-19T23:42:05.750Z,44.13
2019-03-19T23:44:39.021Z,37.17
2019-03-19T23:47:09.349Z,41.40
2019-03-19T23:49:39.771Z,42.70
2019-03-19T23:52:10.180Z,39.63
2019-03-19T23:54:40.573Z,39.73
2019-03-19T23:57:10.982Z,41.17
2019-03-19T23:59:41.360Z,38.27
